createdAt,value
2019-02-08T00:00:58.924Z,3.85
2019-02-08T00:03:31.552Z,2.55
2019-02-08T00:06:04.432Z,2.45
2019-02-08T00:08:37.303Z,1.60
2019-02-08T00:11:10.575Z,1.80
2019-02-08T00:13:43.567Z,3.62
2019-02-08T00:16:16.466Z,3.92
2019-02-08T00:18:53.914Z,1.37
2019-02-08T00:21:26.880Z,2.47
2019-02-08T00:23:59.854Z,3.17
2019-02-08T00:26:32.471Z,2.37
2019-02-08T00:29:05.140Z,2.25
2019-02-08T00:31:37.640Z,2.87
2019-02-08T00:34:10.571Z,1.55
2019-02-08T00:36:42.941Z,1.32
2019-02-08T00:39:15.403Z,1.60
2019-02-08T00:41:48.253Z,2.72
2019-02-08T00:44:21.451Z,4.70
2019-02-08T00:46:54.578Z,3.95
2019-02-08T00:49:27.331Z,2.62
2019-02-08T00:52:00.345Z,1.22
2019-02-08T00:54:33.871Z,2.08
2019-02-08T00:57:06.877Z,2.55
2019-02-08T00:59:39.626Z,1.87
2019-02-08T01:02:12.183Z,2.87
2019-02-08T01:04:44.855Z,3.33
2019-02-08T01:07:18.000Z,1.98
2019-02-08T01:09:51.195Z,5.40
2019-02-08T01:12:24.064Z,0.95
2019-02-08T01:14:57.239Z,3.02
2019-02-08T01:17:30.985Z,1.52
2019-02-08T01:20:05.651Z,1.70
2019-02-08T01:22:38.354Z,5.15
2019-02-08T01:25:14.431Z,2.80
2019-02-08T01:27:47.247Z,1.75
2019-02-08T01:30:22.753Z,2.83
2019-02-08T01:32:55.259Z,3.52
2019-02-08T01:35:28.931Z,2.52
2019-02-08T01:38:03.654Z,1.05
2019-02-08T01:40:38.293Z,1.98
2019-02-08T01:43:11.176Z,1.85
2019-02-08T01:45:43.639Z,4.20
2019-02-08T01:48:16.857Z,1.30
2019-02-08T01:50:49.616Z,3.08
2019-02-08T01:53:22.405Z,4.08
2019-02-08T01:55:55.293Z,5.03
2019-02-08T01:58:28.250Z,3.05
2019-02-08T02:01:01.666Z,3.77
2019-02-08T02:03:34.971Z,3.02
2019-02-08T02:06:09.308Z,5.45
2019-02-08T02:08:41.980Z,4.12
2019-02-08T02:11:15.059Z,5.28
2019-02-08T02:13:47.441Z,6.00
2019-02-08T02:16:19.911Z,2.45
2019-02-08T02:18:52.900Z,2.65
2019-02-08T02:21:25.583Z,3.80
2019-02-08T02:23:58.462Z,3.62
2019-02-08T02:26:31.660Z,6.08
2019-02-08T02:29:04.204Z,1.62
2019-02-08T02:31:37.610Z,2.72
2019-02-08T02:34:11.139Z,1.87
2019-02-08T02:36:44.015Z,4.08
2019-02-08T02:39:16.853Z,4.08
2019-02-08T02:41:49.664Z,2.08
2019-02-08T02:44:24.638Z,4.00
2019-02-08T02:46:59.035Z,5.97
2019-02-08T02:49:31.633Z,4.65
2019-02-08T02:52:04.694Z,7.90
2019-02-08T02:54:37.741Z,4.90
2019-02-08T02:57:10.705Z,2.17
2019-02-08T02:59:43.316Z,3.75
2019-02-08T03:02:16.754Z,2.17
2019-02-08T03:04:49.712Z,1.87
2019-02-08T03:07:22.290Z,3.95
2019-02-08T03:09:54.745Z,3.12
2019-02-08T03:12:27.604Z,3.80
2019-02-08T03:15:00.594Z,2.25
2019-02-08T03:17:33.615Z,3.00
2019-02-08T03:20:11.637Z,2.17
2019-02-08T03:22:44.199Z,1.30
2019-02-08T03:25:20.539Z,2.35
2019-02-08T03:27:53.160Z,1.77
2019-02-08T03:30:54.800Z,2.77
2019-02-08T03:33:27.707Z,1.20
2019-02-08T03:35:59.937Z,1.15
2019-02-08T03:38:33.117Z,1.85
2019-02-08T03:41:06.237Z,1.55
2019-02-08T03:43:38.995Z,1.60
2019-02-08T03:46:11.796Z,1.80
2019-02-08T03:48:44.479Z,1.07
2019-02-08T03:51:17.128Z,2.60
2019-02-08T03:53:49.686Z,4.85
2019-02-08T03:56:22.223Z,2.50
2019-02-08T03:58:54.682Z,1.67
2019-02-08T04:01:27.125Z,1.42
2019-02-08T04:04:18.564Z,1.92
2019-02-08T04:06:51.242Z,1.85
2019-02-08T04:09:24.026Z,2.12
2019-02-08T04:11:56.883Z,1.50
2019-02-08T04:14:29.635Z,2.22
2019-02-08T04:17:03.093Z,2.40
2019-02-08T04:19:35.836Z,2.92
2019-02-08T04:22:08.591Z,1.67
2019-02-08T04:24:41.339Z,5.95
2019-02-08T04:27:13.802Z,2.12
2019-02-08T04:29:46.698Z,2.47
2019-02-08T04:32:19.371Z,4.62
2019-02-08T04:34:52.256Z,1.75
2019-02-08T04:37:25.913Z,2.25
2019-02-08T04:39:58.556Z,2.10
2019-02-08T04:42:31.216Z,1.30
2019-02-08T04:45:04.192Z,1.70
2019-02-08T04:47:37.142Z,1.22
2019-02-08T04:50:11.607Z,1.55
2019-02-08T04:52:44.165Z,2.50
2019-02-08T04:55:16.808Z,0.70
2019-02-08T04:57:50.068Z,2.27
2019-02-08T05:00:37.539Z,1.17
2019-02-08T05:03:10.313Z,1.92
2019-02-08T05:05:42.748Z,4.33
2019-02-08T05:08:16.633Z,2.60
2019-02-08T05:10:48.999Z,1.98
2019-02-08T05:13:21.535Z,2.52
2019-02-08T05:15:53.895Z,1.22
2019-02-08T05:18:26.483Z,4.03
2019-02-08T05:20:59.139Z,4.08
2019-02-08T05:23:31.744Z,1.57
2019-02-08T05:26:04.606Z,2.15
2019-02-08T05:28:37.243Z,2.67
2019-02-08T05:31:09.845Z,3.22
2019-02-08T05:33:42.740Z,1.40
2019-02-08T05:36:15.975Z,3.27
2019-02-08T05:38:48.298Z,1.82
2019-02-08T05:41:21.271Z,2.67
2019-02-08T05:43:53.678Z,3.52
2019-02-08T05:46:26.350Z,5.10
2019-02-08T05:48:59.218Z,3.33
2019-02-08T05:51:32.106Z,3.90
2019-02-08T05:54:05.459Z,4.30
2019-02-08T05:56:38.473Z,3.92
2019-02-08T05:59:11.354Z,1.87
2019-02-08T06:01:44.259Z,4.05
2019-02-08T06:04:16.675Z,2.12
2019-02-08T06:06:49.285Z,4.65
2019-02-08T06:09:22.157Z,4.15
2019-02-08T06:11:55.174Z,2.80
2019-02-08T06:14:27.774Z,1.62
2019-02-08T06:17:00.850Z,2.02
2019-02-08T06:19:33.135Z,3.07
2019-02-08T06:22:06.083Z,3.35
2019-02-08T06:24:39.047Z,2.87
2019-02-08T06:27:11.875Z,6.05
2019-02-08T06:29:44.347Z,3.10
2019-02-08T06:32:17.104Z,2.33
2019-02-08T06:34:49.758Z,1.32
2019-02-08T06:37:22.174Z,1.55
2019-02-08T06:39:54.967Z,1.93
2019-02-08T06:42:28.103Z,1.60
2019-02-08T06:45:00.610Z,2.60
2019-02-08T06:47:33.445Z,1.43
2019-02-08T06:50:06.690Z,1.00
2019-02-08T06:52:39.511Z,1.17
2019-02-08T06:55:13.073Z,3.37
2019-02-08T06:58:14.723Z,1.83
2019-02-08T07:01:08.214Z,1.53
2019-02-08T07:03:48.474Z,2.83
2019-02-08T07:06:39.830Z,1.23
2019-02-08T07:09:31.597Z,1.20
2019-02-08T07:12:15.739Z,1.27
2019-02-08T07:15:09.295Z,1.57
2019-02-08T07:17:50.006Z,1.63
2019-02-08T07:20:50.134Z,1.20
2019-02-08T07:23:41.339Z,1.50
2019-02-08T07:26:35.417Z,1.10
2019-02-08T07:29:14.791Z,1.40
2019-02-08T07:32:06.179Z,1.83
2019-02-08T07:35:06.660Z,2.33
2019-02-08T07:38:04.070Z,1.00
2019-02-08T07:41:05.931Z,3.03
2019-02-08T07:43:57.875Z,1.73
2019-02-08T07:46:36.808Z,1.30
2019-02-08T07:49:17.343Z,2.57
2019-02-08T07:52:08.030Z,1.63
2019-02-08T07:55:05.394Z,1.00
2019-02-08T07:57:55.548Z,0.67
2019-02-08T08:00:41.494Z,1.37
2019-02-08T08:03:31.227Z,2.40
2019-02-08T08:06:29.275Z,1.30
2019-02-08T08:09:11.914Z,1.47
2019-02-08T08:12:01.875Z,2.03
2019-02-08T08:14:58.120Z,1.97
2019-02-08T08:17:50.420Z,4.03
2019-02-08T08:20:47.095Z,1.93
2019-02-08T08:23:35.102Z,1.70
2019-02-08T08:26:16.034Z,2.43
2019-02-08T08:29:18.963Z,0.83
2019-02-08T08:31:58.546Z,0.73
2019-02-08T08:34:43.982Z,1.97
2019-02-08T08:37:32.227Z,1.97
2019-02-08T08:41:06.195Z,1.57
2019-02-08T08:44:24.286Z,2.77
2019-02-08T08:47:41.411Z,1.13
2019-02-08T08:50:51.722Z,2.70
2019-02-08T08:54:06.667Z,0.87
2019-02-08T08:57:08.714Z,1.70
2019-02-08T09:00:28.900Z,1.13
2019-02-08T09:03:30.915Z,1.20
2019-02-08T09:06:44.761Z,1.10
2019-02-08T09:09:59.054Z,1.93
2019-02-08T09:13:04.111Z,1.63
2019-02-08T09:16:08.229Z,2.03
2019-02-08T09:19:18.799Z,3.03
2019-02-08T09:22:24.730Z,1.07
2019-02-08T09:25:35.828Z,1.43
2019-02-08T09:28:46.011Z,1.13
2019-02-08T09:31:53.187Z,0.70
2019-02-08T09:35:23.411Z,1.53
2019-02-08T09:38:31.523Z,1.60
2019-02-08T09:41:43.320Z,0.83
2019-02-08T09:44:53.370Z,1.77
2019-02-08T09:48:00.151Z,1.10
2019-02-08T09:51:30.258Z,1.17
2019-02-08T09:54:37.625Z,1.40
2019-02-08T09:58:04.835Z,1.60
2019-02-08T10:01:12.642Z,0.83
2019-02-08T10:04:35.867Z,0.67
2019-02-08T10:07:53.735Z,1.30
2019-02-08T10:11:35.762Z,0.90
2019-02-08T10:14:46.293Z,1.07
2019-02-08T10:18:08.153Z,1.27
2019-02-08T10:21:18.705Z,1.07
2019-02-08T10:24:29.632Z,2.30
2019-02-08T10:27:36.062Z,1.40
2019-02-08T10:31:06.394Z,1.37
2019-02-08T10:34:13.959Z,1.13
2019-02-08T10:37:16.008Z,1.77
2019-02-08T10:40:22.731Z,1.73
2019-02-08T10:43:40.062Z,0.63
2019-02-08T10:46:46.938Z,1.43
2019-02-08T10:50:07.347Z,1.13
2019-02-08T10:53:14.226Z,0.67
2019-02-08T10:56:24.734Z,0.50
2019-02-08T10:59:34.867Z,0.50
2019-02-08T11:02:41.630Z,0.43
2019-02-08T11:06:01.515Z,1.40
2019-02-08T11:09:09.449Z,0.67
2019-02-08T11:12:12.209Z,0.63
2019-02-08T11:15:42.923Z,0.73
2019-02-08T11:18:49.459Z,0.77
2019-02-08T11:21:22.207Z,0.67
2019-02-08T11:23:54.859Z,1.03
2019-02-08T11:26:27.686Z,0.43
2019-02-08T11:29:01.011Z,0.97
2019-02-08T11:31:33.640Z,0.90
2019-02-08T11:34:07.940Z,1.30
2019-02-08T11:36:41.062Z,0.50
2019-02-08T11:39:17.965Z,0.43
2019-02-08T11:41:51.724Z,0.90
2019-02-08T11:44:25.795Z,1.53
2019-02-08T11:46:58.767Z,1.40
2019-02-08T11:49:31.786Z,1.07
2019-02-08T11:52:04.747Z,1.17
2019-02-08T11:54:37.459Z,1.50
2019-02-08T11:57:09.804Z,1.10
2019-02-08T11:59:42.500Z,1.33
2019-02-08T12:02:15.218Z,2.10
2019-02-08T12:04:48.478Z,1.37
2019-02-08T12:07:21.519Z,1.43
2019-02-08T12:09:53.959Z,1.43
2019-02-08T12:12:26.430Z,1.83
2019-02-08T12:14:58.795Z,1.70
2019-02-08T12:17:31.706Z,1.13
2019-02-08T12:20:04.836Z,1.50
2019-02-08T12:22:37.369Z,0.63
2019-02-08T12:25:10.297Z,0.77
2019-02-08T12:27:42.798Z,0.50
2019-02-08T12:30:20.685Z,0.50
2019-02-08T12:32:53.519Z,0.70
2019-02-08T12:35:26.428Z,0.63
2019-02-08T12:37:59.184Z,0.70
2019-02-08T12:40:32.209Z,0.40
2019-02-08T12:43:04.788Z,0.57
2019-02-08T12:45:37.409Z,1.00
2019-02-08T12:48:10.464Z,0.70
2019-02-08T12:50:43.398Z,0.90
2019-02-08T12:53:16.039Z,0.50
2019-02-08T12:55:48.555Z,0.50
2019-02-08T12:58:21.481Z,1.17
2019-02-08T13:00:54.051Z,1.17
2019-02-08T13:03:26.813Z,0.50
2019-02-08T13:05:59.726Z,0.60
2019-02-08T13:08:31.974Z,0.67
2019-02-08T13:11:04.779Z,0.40
2019-02-08T13:13:38.231Z,0.60
2019-02-08T13:16:11.422Z,0.60
2019-02-08T13:18:43.809Z,0.60
2019-02-08T13:21:16.662Z,0.50
2019-02-08T13:23:49.336Z,0.60
2019-02-08T13:26:22.119Z,0.47
2019-02-08T13:28:54.755Z,0.50
2019-02-08T13:31:27.382Z,0.40
2019-02-08T13:34:00.603Z,0.50
2019-02-08T13:36:33.453Z,1.10
2019-02-08T13:39:07.579Z,0.40
2019-02-08T13:41:40.575Z,0.40
2019-02-08T13:44:13.034Z,0.60
2019-02-08T13:46:46.038Z,0.60
2019-02-08T13:49:18.821Z,0.60
2019-02-08T13:51:51.698Z,0.70
2019-02-08T13:54:24.636Z,0.57
2019-02-08T13:57:00.757Z,0.57
2019-02-08T13:59:31.275Z,0.50
2019-02-08T14:02:03.895Z,0.50
2019-02-08T14:04:36.690Z,0.53
2019-02-08T14:07:08.991Z,0.60
2019-02-08T14:09:41.570Z,0.53
2019-02-08T14:12:15.462Z,0.60
2019-02-08T14:14:48.006Z,0.50
2019-02-08T14:17:22.896Z,0.43
2019-02-08T14:19:55.871Z,0.90
2019-02-08T14:22:28.822Z,0.70
2019-02-08T14:25:05.243Z,0.57
2019-02-08T14:27:37.611Z,0.77
2019-02-08T14:30:16.867Z,0.50
2019-02-08T14:32:49.199Z,0.60
2019-02-08T14:35:21.995Z,0.60
2019-02-08T14:37:55.080Z,0.50
2019-02-08T14:40:28.211Z,0.50
2019-02-08T14:43:00.942Z,0.90
2019-02-08T14:45:33.879Z,0.50
2019-02-08T14:48:06.543Z,0.50
2019-02-08T14:50:39.723Z,0.70
2019-02-08T14:53:12.502Z,0.80
2019-02-08T14:55:45.305Z,0.50
2019-02-08T14:58:18.027Z,0.70
2019-02-08T15:00:50.416Z,0.73
2019-02-08T15:03:23.191Z,0.50
2019-02-08T15:05:56.160Z,0.83
2019-02-08T15:08:28.383Z,0.90
2019-02-08T15:11:01.018Z,0.80
2019-02-08T15:13:34.254Z,0.70
2019-02-08T15:16:07.991Z,0.60
2019-02-08T15:18:41.504Z,1.17
2019-02-08T15:21:14.027Z,0.60
2019-02-08T15:23:46.984Z,0.60
2019-02-08T15:26:19.744Z,0.40
2019-02-08T15:28:52.378Z,0.60
2019-02-08T15:31:25.154Z,0.80
2019-02-08T15:33:57.694Z,0.63
2019-02-08T15:36:30.431Z,0.50
2019-02-08T15:39:02.767Z,0.90
2019-02-08T15:41:38.261Z,0.53
2019-02-08T15:44:11.552Z,0.50
2019-02-08T15:46:44.770Z,0.50
2019-02-08T15:49:17.343Z,1.03
2019-02-08T15:51:50.597Z,0.87
2019-02-08T15:54:24.193Z,0.80
2019-02-08T15:56:56.571Z,0.87
2019-02-08T15:59:29.115Z,0.70
2019-02-08T16:02:02.227Z,0.50
2019-02-08T16:04:35.056Z,0.60
2019-02-08T16:07:07.486Z,0.63
2019-02-08T16:09:40.061Z,0.77
2019-02-08T16:12:13.052Z,0.83
2019-02-08T16:14:46.295Z,0.67
2019-02-08T16:17:19.331Z,0.60
2019-02-08T16:19:52.235Z,0.50
2019-02-08T16:22:26.331Z,0.80
2019-02-08T16:24:58.590Z,0.57
2019-02-08T16:27:31.474Z,0.60
2019-02-08T16:30:03.794Z,0.50
2019-02-08T16:32:36.609Z,0.50
2019-02-08T16:35:09.796Z,0.60
2019-02-08T16:37:43.147Z,0.70
2019-02-08T16:40:18.595Z,0.60
2019-02-08T16:42:51.859Z,0.80
2019-02-08T16:45:27.154Z,0.83
2019-02-08T16:48:00.350Z,0.70
2019-02-08T16:50:33.547Z,0.50
2019-02-08T16:53:06.790Z,0.70
2019-02-08T16:55:39.342Z,0.77
2019-02-08T16:58:12.316Z,0.70
2019-02-08T17:00:45.907Z,1.13
2019-02-08T17:03:18.510Z,0.60
2019-02-08T17:05:51.511Z,0.87
2019-02-08T17:08:24.311Z,0.60
2019-02-08T17:10:56.783Z,0.70
2019-02-08T17:13:29.696Z,0.73
2019-02-08T17:16:02.530Z,0.97
2019-02-08T17:18:35.405Z,0.60
2019-02-08T17:21:08.419Z,0.90
2019-02-08T17:23:41.269Z,0.53
2019-02-08T17:26:14.279Z,0.60
2019-02-08T17:28:47.206Z,0.60
2019-02-08T17:31:19.503Z,0.50
2019-02-08T17:33:51.923Z,0.50
2019-02-08T17:36:24.769Z,0.50
2019-02-08T17:38:57.269Z,0.67
2019-02-08T17:41:29.738Z,0.57
2019-02-08T17:44:02.093Z,0.60
2019-02-08T17:46:35.156Z,0.53
2019-02-08T17:49:07.835Z,0.60
2019-02-08T17:51:41.028Z,0.83
2019-02-08T17:54:13.451Z,0.83
2019-02-08T17:56:47.302Z,0.60
2019-02-08T17:59:19.914Z,0.60
2019-02-08T18:01:52.426Z,0.63
2019-02-08T18:04:25.134Z,0.50
2019-02-08T18:06:57.834Z,0.57
2019-02-08T18:09:30.326Z,0.60
2019-02-08T18:12:03.540Z,0.60
2019-02-08T18:14:36.114Z,0.60
2019-02-08T18:17:09.087Z,0.97
2019-02-08T18:19:41.461Z,0.50
2019-02-08T18:22:14.058Z,0.63
2019-02-08T18:24:50.680Z,0.50
2019-02-08T18:27:23.544Z,0.70
2019-02-08T18:29:56.498Z,0.70
2019-02-08T18:32:29.366Z,0.80
2019-02-08T18:35:01.699Z,0.60
2019-02-08T18:37:34.556Z,0.60
2019-02-08T18:40:07.648Z,0.55
2019-02-08T18:42:40.718Z,0.70
2019-02-08T18:45:15.715Z,0.90
2019-02-08T18:47:48.190Z,0.60
2019-02-08T18:50:23.332Z,0.60
2019-02-08T18:52:56.032Z,0.60
2019-02-08T18:55:28.270Z,0.77
2019-02-08T18:58:01.655Z,0.98
2019-02-08T19:00:39.922Z,1.02
2019-02-08T19:03:12.484Z,0.57
2019-02-08T19:05:44.898Z,1.32
2019-02-08T19:08:20.178Z,0.60
2019-02-08T19:10:52.939Z,0.60
2019-02-08T19:13:28.015Z,0.60
2019-02-08T19:16:00.232Z,0.77
2019-02-08T19:18:32.742Z,0.60
2019-02-08T19:21:05.797Z,0.60
2019-02-08T19:23:38.419Z,0.70
2019-02-08T19:26:11.569Z,0.50
2019-02-08T19:28:44.714Z,0.60
2019-02-08T19:31:17.296Z,0.60
2019-02-08T19:33:49.712Z,0.60
2019-02-08T19:36:22.754Z,0.68
2019-02-08T19:38:55.854Z,0.50
2019-02-08T19:41:28.729Z,0.60
2019-02-08T19:44:01.538Z,0.70
2019-02-08T19:46:34.202Z,0.60
2019-02-08T19:49:06.562Z,0.50
2019-02-08T19:51:39.350Z,0.65
2019-02-08T19:54:12.278Z,0.70
2019-02-08T19:56:45.295Z,0.60
2019-02-08T19:59:17.979Z,0.70
2019-02-08T20:01:51.166Z,0.60
2019-02-08T20:04:23.870Z,0.50
2019-02-08T20:06:56.792Z,0.60
2019-02-08T20:09:29.650Z,0.60
2019-02-08T20:12:02.843Z,0.53
2019-02-08T20:14:35.464Z,0.50
2019-02-08T20:17:07.736Z,0.60
2019-02-08T20:19:40.514Z,0.50
2019-02-08T20:22:13.353Z,0.60
2019-02-08T20:24:45.695Z,0.60
2019-02-08T20:27:18.609Z,0.60
2019-02-08T20:29:51.669Z,0.50
2019-02-08T20:32:25.757Z,0.50
2019-02-08T20:34:58.539Z,0.60
2019-02-08T20:37:31.454Z,0.60
2019-02-08T20:40:04.187Z,0.60
2019-02-08T20:42:36.952Z,0.60
2019-02-08T20:45:13.087Z,0.70
2019-02-08T20:47:46.031Z,0.50
2019-02-08T20:50:18.970Z,0.70
2019-02-08T20:52:51.882Z,0.50
2019-02-08T20:55:25.397Z,0.60
2019-02-08T20:57:58.554Z,0.60
2019-02-08T21:00:37.525Z,0.72
2019-02-08T21:03:17.390Z,0.50
2019-02-08T21:05:50.918Z,0.55
2019-02-08T21:08:24.544Z,0.50
2019-02-08T21:10:57.567Z,0.60
2019-02-08T21:13:30.583Z,0.60
2019-02-08T21:16:02.929Z,0.55
2019-02-08T21:18:35.960Z,0.60
2019-02-08T21:21:09.805Z,0.57
2019-02-08T21:23:43.081Z,0.50
2019-02-08T21:26:16.113Z,0.60
2019-02-08T21:28:49.258Z,0.60
2019-02-08T21:31:22.360Z,0.60
2019-02-08T21:33:54.842Z,0.50
2019-02-08T21:36:27.654Z,0.60
2019-02-08T21:39:01.234Z,0.68
2019-02-08T21:41:34.901Z,0.50
2019-02-08T21:44:07.952Z,0.60
2019-02-08T21:46:40.655Z,0.70
2019-02-08T21:49:13.146Z,0.60
2019-02-08T21:51:46.033Z,0.50
2019-02-08T21:54:18.439Z,0.70
2019-02-08T21:56:51.183Z,0.60
2019-02-08T21:59:24.083Z,0.60
2019-02-08T22:01:56.647Z,0.60
2019-02-08T22:04:29.783Z,0.60
2019-02-08T22:07:03.224Z,0.60
2019-02-08T22:09:36.174Z,0.50
2019-02-08T22:12:09.073Z,0.50
2019-02-08T22:14:42.014Z,0.70
2019-02-08T22:17:14.527Z,0.50
2019-02-08T22:19:47.241Z,2.77
2019-02-08T22:22:19.674Z,0.60
2019-02-08T22:24:52.288Z,0.53
2019-02-08T22:27:25.108Z,0.53
2019-02-08T22:29:57.850Z,0.93
2019-02-08T22:32:31.399Z,0.60
2019-02-08T22:35:04.239Z,0.60
2019-02-08T22:37:38.391Z,0.60
2019-02-08T22:40:14.190Z,0.50
2019-02-08T22:42:47.199Z,0.50
2019-02-08T22:45:34.500Z,0.60
2019-02-08T22:48:08.536Z,0.57
2019-02-08T22:50:41.597Z,0.60
2019-02-08T22:53:13.894Z,0.90
2019-02-08T22:55:46.816Z,0.60
2019-02-08T22:58:19.196Z,0.62
2019-02-08T23:01:29.951Z,0.50
2019-02-08T23:04:03.676Z,0.60
2019-02-08T23:06:44.179Z,0.60
2019-02-08T23:09:24.438Z,0.60
2019-02-08T23:11:57.011Z,0.60
2019-02-08T23:14:29.851Z,0.60
2019-02-08T23:17:02.545Z,0.50
2019-02-08T23:19:35.621Z,0.60
2019-02-08T23:22:08.788Z,0.50
2019-02-08T23:24:41.624Z,0.50
2019-02-08T23:27:14.139Z,0.60
2019-02-08T23:29:46.585Z,0.50
2019-02-08T23:32:19.296Z,0.60
2019-02-08T23:34:52.021Z,0.60
2019-02-08T23:37:26.271Z,0.60
2019-02-08T23:39:58.510Z,0.60
2019-02-08T23:42:32.575Z,0.60
2019-02-08T23:45:06.469Z,0.60
2019-02-08T23:47:39.233Z,0.60
2019-02-08T23:50:12.104Z,0.60
2019-02-08T23:52:46.358Z,0.50
2019-02-08T23:55:21.183Z,0.60
2019-02-08T23:57:54.233Z,1.20
